Time;durP1;ratioP1;P1;durP2;ratioP2;P2;SDS_P1;SDS_P2;PMS_P1;PMS_P2;Temp;Humidity;BMP_temperature;BMP_pressure;BME280_temperature;BME280_humidity;BME280_pressure;Samples;Min_cycle;Max_cycle;Signal;HPM_P1;HPM_P2
2023/10/20 00:01:18;;;;;;;12.27;8.50;;;14.00;99.90;;;;;;7373995;19;20029;-71
2023/10/20 00:03:48;;;;;;;13.65;9.13;;;14.00;99.90;;;;;;7374638;19;20516;-71
2023/10/20 00:06:18;;;;;;;9.68;8.50;;;13.90;99.90;;;;;;7373821;19;20014;-71
2023/10/20 00:08:47;;;;;;;9.98;8.98;;;13.90;99.90;;;;;;7373936;19;20078;-73
2023/10/20 00:11:20;;;;;;;11.10;9.93;;;13.90;99.90;;;;;;7373431;19;20126;-70
2023/10/20 00:13:51;;;;;;;10.88;9.75;;;13.90;99.90;;;;;;7373843;19;20014;-69
2023/10/20 00:16:26;;;;;;;11.88;10.10;;;13.90;99.90;;;;;;7373791;19;20022;-69
2023/10/20 00:18:56;;;;;;;11.55;10.35;;;13.90;99.90;;;;;;7372793;19;20078;-70
2023/10/20 00:21:26;;;;;;;11.68;10.30;;;13.90;99.90;;;;;;7376081;19;20705;-69
2023/10/20 00:23:56;;;;;;;15.75;10.70;;;13.90;99.90;;;;;;7374989;19;20022;-69
2023/10/20 00:26:29;;;;;;;12.15;10.70;;;13.90;99.90;;;;;;7372001;19;20014;-69
2023/10/20 00:28:59;;;;;;;13.32;10.77;;;13.90;99.90;;;;;;7371570;19;20390;-72
2023/10/20 00:31:29;;;;;;;16.27;10.73;;;13.90;99.90;;;;;;7373454;19;20011;-69
2023/10/20 00:34:00;;;;;;;12.52;10.73;;;13.80;99.90;;;;;;7375137;19;20017;-69
2023/10/20 00:36:30;;;;;;;13.43;11.00;;;13.80;99.90;;;;;;7368688;19;20014;-69
2023/10/20 00:39:00;;;;;;;13.55;11.25;;;13.70;99.90;;;;;;7371442;19;20002;-70
2023/10/20 00:41:34;;;;;;;14.00;10.98;;;13.70;99.90;;;;;;7374396;19;20006;-72
2023/10/20 00:44:04;;;;;;;;;;;13.70;99.90;;;;;;7372019;19;20014;-71
2023/10/20 00:46:34;;;;;;;12.93;11.13;;;13.70;99.90;;;;;;7371795;19;19919;-69
2023/10/20 00:49:05;;;;;;;14.40;10.85;;;13.70;99.90;;;;;;7372047;19;20018;-69
2023/10/20 00:51:35;;;;;;;12.32;11.02;;;13.70;99.90;;;;;;7372737;19;20082;-70
2023/10/20 00:54:05;;;;;;;12.68;10.68;;;13.70;99.90;;;;;;7372766;19;20003;-70
2023/10/20 00:56:37;;;;;;;14.35;11.82;;;13.70;99.90;;;;;;7370257;19;20018;-70
2023/10/20 00:59:08;;;;;;;14.73;12.48;;;13.70;99.90;;;;;;7372162;19;20019;-70
2023/10/20 01:01:38;;;;;;;13.43;11.40;;;13.70;99.90;;;;;;7371751;19;20541;-70
2023/10/20 01:04:09;;;;;;;13.35;11.50;;;13.60;99.90;;;;;;7372914;19;20006;-70
2023/10/20 01:06:39;;;;;;;13.13;11.73;;;13.70;99.90;;;;;;7370708;19;20015;-70
2023/10/20 01:09:10;;;;;;;16.40;13.20;;;13.60;99.90;;;;;;7371649;19;20094;-70
2023/10/20 01:11:43;;;;;;;14.93;12.90;;;13.60;99.90;;;;;;7371133;19;20025;-70
2023/10/20 01:14:12;;;;;;;15.23;11.98;;;13.60;99.90;;;;;;7372529;19;20007;-69
2023/10/20 01:16:42;;;;;;;14.88;13.27;;;13.70;99.90;;;;;;7370258;19;20015;-69
2023/10/20 01:19:12;;;;;;;14.68;13.10;;;13.60;99.90;;;;;;7371701;19;20661;-69
2023/10/20 01:21:42;;;;;;;18.58;13.05;;;13.60;99.90;;;;;;7371510;19;20017;-70
2023/10/20 01:24:15;;;;;;;17.98;14.07;;;13.60;99.90;;;;;;7372725;19;20010;-70
2023/10/20 01:26:45;;;;;;;17.48;13.73;;;13.60;99.90;;;;;;7370499;19;20089;-70
2023/10/20 01:29:15;;;;;;;17.58;13.63;;;13.60;99.90;;;;;;7373042;19;20018;-71
2023/10/20 01:31:45;;;;;;;17.17;13.85;;;13.60;99.90;;;;;;7379163;19;20018;-70
2023/10/20 01:34:15;;;;;;;16.33;13.45;;;13.60;99.90;;;;;;7379790;19;20022;-70
2023/10/20 01:36:45;;;;;;;16.90;14.63;;;13.60;99.90;;;;;;7377619;19;20794;-70
2023/10/20 01:39:17;;;;;;;16.75;14.32;;;13.60;99.90;;;;;;7377551;19;20017;-71
2023/10/20 01:41:48;;;;;;;17.85;15.15;;;13.60;99.90;;;;;;7379946;19;20015;-70
2023/10/20 01:44:18;;;;;;;18.80;15.00;;;13.60;99.90;;;;;;7378494;19;20015;-70
2023/10/20 01:46:51;;;;;;;15.65;14.02;;;13.50;99.90;;;;;;7379188;19;20014;-70
2023/10/20 01:49:21;;;;;;;15.60;13.25;;;13.50;99.90;;;;;;7377915;19;20002;-71
2023/10/20 01:51:51;;;;;;;13.38;11.57;;;13.60;99.90;;;;;;7378698;19;20826;-70
2023/10/20 01:54:23;;;;;;;14.30;11.40;;;13.60;99.90;;;;;;7378489;19;20845;-71
2023/10/20 01:56:53;;;;;;;13.32;10.88;;;13.60;99.90;;;;;;7377613;19;20077;-70
2023/10/20 01:59:23;;;;;;;12.02;10.82;;;13.60;99.90;;;;;;7378343;19;20010;-70
2023/10/20 02:01:53;;;;;;;15.55;10.73;;;13.60;99.90;;;;;;7379573;19;20027;-71
2023/10/20 02:04:23;;;;;;;11.75;10.40;;;13.60;99.90;;;;;;7377581;19;20370;-70
2023/10/20 02:06:53;;;;;;;11.75;10.23;;;13.60;99.90;;;;;;7376926;19;20017;-70
2023/10/20 02:09:26;;;;;;;13.45;10.10;;;13.60;99.90;;;;;;7375584;19;20090;-69
2023/10/20 02:11:58;;;;;;;14.95;10.95;;;13.60;99.90;;;;;;7378935;19;20517;-69
2023/10/20 02:14:28;;;;;;;14.50;12.02;;;13.60;99.90;;;;;;7379714;19;20014;-69
2023/10/20 02:16:58;;;;;;;13.77;10.95;;;13.50;99.90;;;;;;7375556;19;20010;-69
2023/10/20 02:19:29;;;;;;;13.93;11.07;;;13.60;99.90;;;;;;7376490;19;20022;-69
2023/10/20 02:21:59;;;;;;;15.23;12.50;;;13.50;99.90;;;;;;7378982;19;20019;-69
2023/10/20 02:24:32;;;;;;;14.88;11.27;;;13.60;99.90;;;;;;7379046;19;20018;-70
2023/10/20 02:27:02;;;;;;;13.88;11.13;;;13.60;99.90;;;;;;7376937;19;20010;-69
2023/10/20 02:29:33;;;;;;;14.23;10.30;;;13.50;99.90;;;;;;7377563;19;20006;-69
2023/10/20 02:32:03;;;;;;;15.70;10.48;;;13.50;99.90;;;;;;7371389;19;20022;-70
2023/10/20 02:34:34;;;;;;;11.52;10.05;;;13.50;99.90;;;;;;7376420;19;20022;-69
2023/10/20 02:37:04;;;;;;;11.70;9.63;;;13.40;99.90;;;;;;7375067;19;20019;-69
2023/10/20 02:39:36;;;;;;;12.43;9.73;;;13.50;99.90;;;;;;7375009;19;20102;-69
2023/10/20 02:42:06;;;;;;;12.13;9.93;;;13.40;99.90;;;;;;7375746;19;20017;-69
2023/10/20 02:44:36;;;;;;;10.88;9.73;;;13.40;99.90;;;;;;7376873;19;20086;-69
2023/10/20 02:47:08;;;;;;;11.48;9.13;;;13.50;99.90;;;;;;7375169;19;20006;-69
2023/10/20 02:49:38;;;;;;;11.45;9.32;;;13.40;99.90;;;;;;7375639;19;20043;-69
2023/10/20 02:52:08;;;;;;;12.15;10.38;;;13.40;99.90;;;;;;7375852;19;20074;-69
2023/10/20 02:54:40;;;;;;;11.02;8.88;;;13.40;99.90;;;;;;7375711;19;20023;-70
2023/10/20 02:57:10;;;;;;;9.10;8.13;;;13.40;99.90;;;;;;7375296;19;20352;-69
2023/10/20 02:59:40;;;;;;;9.20;8.20;;;13.40;99.90;;;;;;7375261;19;20470;-69
2023/10/20 03:02:10;;;;;;;8.52;6.63;;;13.40;99.90;;;;;;7373994;19;20015;-70
2023/10/20 03:04:40;;;;;;;9.68;8.30;;;13.50;99.90;;;;;;7375961;19;20010;-70
2023/10/20 03:07:10;;;;;;;8.63;7.63;;;13.50;99.90;;;;;;7375798;19;20040;-70
2023/10/20 03:09:43;;;;;;;10.90;8.10;;;13.50;99.90;;;;;;7375096;19;20039;-70
2023/10/20 03:12:13;;;;;;;9.85;7.93;;;13.50;99.90;;;;;;7376272;19;20503;-70
2023/10/20 03:14:43;;;;;;;8.60;7.10;;;13.50;99.90;;;;;;7376901;19;20594;-69
2023/10/20 03:17:14;;;;;;;9.02;7.22;;;13.40;99.90;;;;;;7375233;19;20010;-69
2023/10/20 03:19:48;;;;;;;8.88;7.80;;;13.40;99.90;;;;;;7375005;19;20014;-70
2023/10/20 03:22:18;;;;;;;11.60;7.87;;;13.40;99.90;;;;;;7375692;19;20006;-70
2023/10/20 03:24:50;;;;;;;9.27;8.35;;;13.40;99.90;;;;;;7376843;19;20639;-70
2023/10/20 03:27:20;;;;;;;9.57;7.78;;;13.40;99.90;;;;;;7374877;19;20105;-69
2023/10/20 03:29:50;;;;;;;9.40;7.85;;;13.40;99.90;;;;;;7375464;19;20094;-69
2023/10/20 03:32:20;;;;;;;10.60;8.07;;;13.40;99.90;;;;;;7374024;19;20101;-70
2023/10/20 03:34:50;;;;;;;8.50;7.57;;;13.40;99.90;;;;;;7375852;19;20017;-70
2023/10/20 03:37:20;;;;;;;8.40;7.50;;;13.40;99.90;;;;;;7374110;19;20011;-70
2023/10/20 03:39:53;;;;;;;10.95;8.00;;;13.40;99.90;;;;;;7374870;19;20047;-70
2023/10/20 03:42:23;;;;;;;13.35;8.63;;;13.40;99.90;;;;;;7374381;19;20144;-70
2023/10/20 03:44:53;;;;;;;8.88;7.47;;;13.40;99.90;;;;;;7375769;19;20513;-69
2023/10/20 03:47:27;;;;;;;12.63;8.43;;;13.40;99.90;;;;;;7373827;19;20026;-70
2023/10/20 03:50:00;;;;;;;12.55;8.57;;;13.40;99.90;;;;;;7374501;19;20017;-70
2023/10/20 03:52:30;;;;;;;10.43;8.60;;;13.40;99.90;;;;;;7368759;19;20017;-69
2023/10/20 03:55:03;;;;;;;13.52;9.07;;;13.40;99.90;;;;;;7375146;19;20086;-70
2023/10/20 03:57:34;;;;;;;15.40;8.55;;;13.40;99.90;;;;;;7375480;19;20010;-70
2023/10/20 04:00:17;;;;;;;13.45;9.73;;;13.40;99.90;;;;;;7375288;19;20091;-70
2023/10/20 04:02:50;;;;;;;14.82;11.27;;;13.40;99.90;;;;;;6864092;19;2005524;-70
2023/10/20 04:05:20;;;;;;;12.73;11.00;;;13.30;99.90;;;;;;7373836;19;20377;-70
2023/10/20 04:07:51;;;;;;;14.60;12.60;;;13.30;99.90;;;;;;7373645;19;20014;-69
2023/10/20 04:10:23;;;;;;;14.98;11.95;;;13.20;99.90;;;;;;7372979;19;20021;-69
2023/10/20 04:12:53;;;;;;;16.25;12.60;;;13.20;99.90;;;;;;7374917;19;20887;-69
2023/10/20 04:15:26;;;;;;;15.07;11.65;;;13.20;99.90;;;;;;7374397;19;20090;-70
2023/10/20 04:17:56;;;;;;;15.23;11.80;;;13.20;99.90;;;;;;7374479;19;20420;-70
2023/10/20 04:20:26;;;;;;;15.07;10.90;;;13.20;99.90;;;;;;7373589;19;20017;-70
2023/10/20 04:22:54;;;;;;;13.70;11.13;;;13.20;99.90;;;;;;7374624;19;20010;-70
2023/10/20 04:25:33;;;;;;;16.08;11.98;;;13.20;99.90;;;;;;7374416;19;20129;-70
2023/10/20 04:28:11;;;;;;;12.13;9.77;;;13.20;99.90;;;;;;7371302;19;20011;-70
2023/10/20 04:58:07;;;;;;;11.43;10.23;;;13.10;99.90;;;;;;7370733;19;20009;-70
2023/10/20 05:00:41;;;;;;;13.18;10.50;;;13.20;99.90;;;;;;7370397;19;20006;-70
2023/10/20 05:03:29;;;;;;;13.45;10.88;;;13.10;99.90;;;;;;7373462;19;20010;-70
2023/10/20 05:06:19;;;;;;;12.65;10.02;;;13.10;99.90;;;;;;7379652;19;20011;-70
2023/10/20 05:08:49;;;;;;;12.52;10.05;;;13.10;99.90;;;;;;6867535;19;2004827;-68
2023/10/20 05:11:19;;;;;;;13.07;10.88;;;13.10;99.90;;;;;;7379221;19;20070;-69
2023/10/20 05:13:52;;;;;;;14.02;10.48;;;13.10;99.90;;;;;;7379609;19;20014;-69
2023/10/20 05:16:26;;;;;;;11.95;9.48;;;13.20;99.90;;;;;;7377873;19;20494;-69
2023/10/20 05:18:56;;;;;;;10.57;9.32;;;13.20;99.90;;;;;;7379284;19;20034;-70
2023/10/20 05:21:25;;;;;;;11.60;9.30;;;13.10;99.90;;;;;;7378510;19;20030;-70
2023/10/20 05:23:55;;;;;;;9.57;8.00;;;13.20;99.90;;;;;;7379715;19;20361;-70
2023/10/20 05:26:25;;;;;;;9.82;8.25;;;13.20;99.90;;;;;;7378656;19;20061;-70
2023/10/20 05:28:58;;;;;;;10.50;7.60;;;13.20;99.90;;;;;;7377013;19;20051;-70
2023/10/20 05:31:29;;;;;;;11.20;8.60;;;13.20;99.90;;;;;;7378808;19;20082;-70
2023/10/20 05:34:01;;;;;;;8.82;7.93;;;13.20;99.90;;;;;;7379477;19;20577;-69
2023/10/20 05:36:31;;;;;;;9.48;8.38;;;13.20;99.90;;;;;;7378326;19;20530;-71
2023/10/20 05:39:01;;;;;;;9.05;7.95;;;13.20;99.90;;;;;;7377298;19;20018;-70
2023/10/20 05:41:30;;;;;;;10.70;7.60;;;13.20;99.90;;;;;;7380831;19;20562;-69
2023/10/20 05:44:06;;;;;;;12.30;8.68;;;13.20;99.90;;;;;;7377060;19;20035;-70
2023/10/20 05:46:37;;;;;;;14.35;8.50;;;13.20;99.90;;;;;;7375841;19;20081;-70
2023/10/20 05:49:08;;;;;;;10.90;8.95;;;13.20;99.90;;;;;;7376952;19;20010;-70
2023/10/20 05:51:38;;;;;;;9.90;7.90;;;13.20;99.90;;;;;;7376706;19;20011;-70
2023/10/20 05:54:10;;;;;;;14.23;9.18;;;13.20;99.90;;;;;;7376060;19;20014;-71
2023/10/20 05:56:39;;;;;;;10.75;9.23;;;13.20;99.90;;;;;;7376294;19;20031;-70
2023/10/20 05:59:12;;;;;;;11.57;9.48;;;13.20;99.90;;;;;;7377539;19;20002;-70
2023/10/20 06:01:42;;;;;;;11.13;9.48;;;13.10;99.90;;;;;;7377904;19;20014;-70
2023/10/20 06:04:12;;;;;;;11.68;9.57;;;13.10;99.90;;;;;;7376921;19;20018;-70
2023/10/20 06:06:42;;;;;;;12.88;9.52;;;13.20;99.90;;;;;;7374488;19;20015;-69
2023/10/20 06:09:12;;;;;;;11.18;9.40;;;13.20;99.90;;;;;;7377080;19;20325;-70
2023/10/20 06:11:42;;;;;;;12.15;10.18;;;13.10;99.90;;;;;;7377898;19;20180;-70
2023/10/20 06:14:15;;;;;;;13.68;9.52;;;13.20;99.90;;;;;;7378487;19;20010;-70
2023/10/20 06:16:44;;;;;;;11.50;9.57;;;13.10;99.90;;;;;;7372939;19;20439;-70
2023/10/20 06:19:15;;;;;;;11.00;9.43;;;13.10;99.90;;;;;;7377626;19;20007;-71
2023/10/20 06:21:45;;;;;;;14.00;9.88;;;13.00;99.90;;;;;;7376818;19;20010;-69
2023/10/20 06:24:16;;;;;;;12.23;9.35;;;13.00;99.90;;;;;;7374318;19;20090;-71
2023/10/20 06:26:47;;;;;;;13.48;10.15;;;13.00;99.90;;;;;;7375631;19;20081;-70
2023/10/20 06:29:27;;;;;;;11.45;10.05;;;13.00;99.90;;;;;;7374822;19;20011;-70
2023/10/20 06:32:09;;;;;;;15.85;10.73;;;13.00;99.90;;;;;;7376453;19;20068;-70
2023/10/20 06:34:40;;;;;;;15.70;10.43;;;13.00;99.90;;;;;;7376072;19;20014;-70
2023/10/20 06:37:14;;;;;;;11.77;9.70;;;13.00;99.90;;;;;;7376098;19;20011;-70
2023/10/20 06:39:44;;;;;;;14.50;9.98;;;13.00;99.90;;;;;;7375929;19;20113;-70
2023/10/20 06:42:14;;;;;;;11.05;9.82;;;13.10;99.90;;;;;;7376216;19;20074;-70
2023/10/20 06:44:46;;;;;;;11.55;9.95;;;13.10;99.90;;;;;;7375963;19;20546;-70
2023/10/20 06:47:16;;;;;;;12.82;10.65;;;13.10;99.90;;;;;;7374861;19;20366;-70
2023/10/20 06:49:46;;;;;;;12.63;11.20;;;13.10;99.90;;;;;;7375668;19;20051;-70
2023/10/20 06:52:18;;;;;;;13.68;10.00;;;13.10;99.90;;;;;;7377614;19;20023;-69
2023/10/20 06:54:48;;;;;;;14.18;11.38;;;13.10;99.90;;;;;;7375734;19;20379;-70
2023/10/20 06:57:38;;;;;;;14.05;10.55;;;13.10;99.90;;;;;;7375733;19;20050;-70
2023/10/20 07:00:20;;;;;;;12.27;10.20;;;13.20;99.90;;;;;;7376567;19;20040;-71
2023/10/20 07:02:51;;;;;;;11.85;9.73;;;13.20;99.90;;;;;;6864837;19;2004695;-71
2023/10/20 07:05:23;;;;;;;12.52;8.98;;;13.20;99.90;;;;;;7375141;19;20510;-69
2023/10/20 07:07:54;;;;;;;12.70;10.27;;;13.30;99.90;;;;;;7375030;19;20006;-70
2023/10/20 07:10:24;;;;;;;15.77;10.65;;;13.40;99.90;;;;;;7373960;19;20086;-70
2023/10/20 07:12:54;;;;;;;13.32;10.40;;;13.40;99.90;;;;;;7375781;19;20052;-70
2023/10/20 07:15:26;;;;;;;14.38;10.20;;;13.40;99.90;;;;;;7375304;19;20021;-70
2023/10/20 07:17:56;;;;;;;12.98;9.82;;;13.50;99.90;;;;;;7375006;19;20021;-71
2023/10/20 07:20:26;;;;;;;13.98;10.50;;;13.50;99.90;;;;;;7374417;19;20323;-70
2023/10/20 07:22:56;;;;;;;12.32;10.23;;;13.60;99.90;;;;;;7375310;19;20025;-71
2023/10/20 07:25:26;;;;;;;11.40;9.50;;;13.60;99.90;;;;;;7376096;19;20014;-70
2023/10/20 07:27:57;;;;;;;12.63;10.40;;;13.60;99.90;;;;;;7373917;19;20010;-71
2023/10/20 07:30:30;;;;;;;12.98;9.68;;;13.60;99.90;;;;;;7374566;19;20006;-70
2023/10/20 07:33:03;;;;;;;12.10;10.15;;;13.60;99.90;;;;;;7376013;19;20022;-71
2023/10/20 07:35:33;;;;;;;10.55;9.15;;;13.70;99.90;;;;;;7376333;19;20007;-70
2023/10/20 07:38:04;;;;;;;9.68;8.18;;;13.70;99.90;;;;;;7375649;19;20013;-71
2023/10/20 07:40:34;;;;;;;11.48;9.07;;;13.90;99.90;;;;;;7374636;19;20014;-70
2023/10/20 07:43:06;;;;;;;9.90;8.23;;;14.00;50.20;;;;;;7375884;19;20366;-70
2023/10/20 07:45:43;;;;;;;12.50;8.38;;;14.30;31.90;;;;;;7375286;19;20010;-70
2023/10/20 07:48:14;;;;;;;9.85;8.20;;;14.30;21.90;;;;;;7372512;19;20019;-71
2023/10/20 07:50:44;;;;;;;10.23;8.23;;;14.40;14.20;;;;;;7374573;19;20077;-69
2023/10/20 07:53:16;;;;;;;10.30;9.18;;;14.40;12.10;;;;;;7374774;19;20014;-70
2023/10/20 07:55:46;;;;;;;10.27;9.07;;;14.50;19.60;;;;;;7374926;19;23141;-70
2023/10/20 07:58:16;;;;;;;13.85;9.13;;;14.50;14.30;;;;;;7372945;19;20090;-70
2023/10/20 08:00:48;;;;;;;11.25;9.43;;;14.40;24.50;;;;;;7375378;19;20014;-71
2023/10/20 08:03:18;;;;;;;13.75;9.48;;;14.50;37.30;;;;;;7396549;19;20014;-71
2023/10/20 08:05:48;;;;;;;10.68;9.25;;;14.40;40.80;;;;;;7377200;19;20017;-70
2023/10/20 08:08:19;;;;;;;11.32;9.32;;;14.40;60.20;;;;;;7374193;19;20078;-71
2023/10/20 08:10:49;;;;;;;11.60;9.48;;;14.50;74.80;;;;;;7374500;19;20464;-71
2023/10/20 08:13:22;;;;;;;14.27;10.18;;;14.40;77.20;;;;;;7374316;19;20014;-71
2023/10/20 08:15:54;;;;;;;13.60;10.73;;;14.40;68.30;;;;;;7373946;19;20010;-71
2023/10/20 08:18:24;;;;;;;16.58;11.77;;;14.40;61.80;;;;;;7372584;19;20017;-71
2023/10/20 08:20:54;;;;;;;17.83;13.23;;;14.40;66.50;;;;;;7374236;19;20006;-71
2023/10/20 08:23:24;;;;;;;14.27;12.30;;;14.40;62.60;;;;;;7374682;19;20002;-71
2023/10/20 08:25:54;;;;;;;13.23;11.48;;;14.30;60.50;;;;;;7375469;19;20040;-71
2023/10/20 08:28:24;;;;;;;15.77;12.00;;;14.30;51.10;;;;;;7372467;19;20094;-71
2023/10/20 08:31:06;;;;;;;14.27;12.15;;;14.30;58.40;;;;;;7374570;19;20013;-71
2023/10/20 08:33:37;;;;;;;16.10;12.57;;;14.40;54.30;;;;;;7375543;19;20455;-70
2023/10/20 08:36:15;;;;;;;14.40;12.55;;;14.40;54.30;;;;;;7373875;19;20412;-70
2023/10/20 08:38:47;;;;;;;15.98;12.70;;;14.40;40.90;;;;;;7371041;19;20026;-70
2023/10/20 08:41:19;;;;;;;16.48;12.45;;;14.40;25.70;;;;;;7381194;19;20518;-70
2023/10/20 08:43:49;;;;;;;14.57;12.60;;;14.50;25.90;;;;;;7379851;19;20017;-70
2023/10/20 08:46:23;;;;;;;16.80;12.63;;;14.40;34.10;;;;;;7380982;19;20017;-71
2023/10/20 08:48:55;;;;;;;16.13;12.40;;;14.50;21.60;;;;;;7379396;19;20487;-70
2023/10/20 08:51:25;;;;;;;16.25;12.50;;;14.60;21.80;;;;;;7380860;19;20089;-70
2023/10/20 08:53:56;;;;;;;14.55;12.45;;;14.70;18.20;;;;;;7381011;19;20495;-71
2023/10/20 08:56:27;;;;;;;12.40;11.00;;;14.80;18.30;;;;;;7378885;19;20658;-71
2023/10/20 08:58:57;;;;;;;13.90;12.50;;;14.80;17.80;;;;;;7380422;19;20011;-71
2023/10/20 09:01:30;;;;;;;13.95;12.00;;;14.90;18.20;;;;;;7379539;19;20085;-71
2023/10/20 09:04:04;;;;;;;15.00;11.90;;;14.90;18.90;;;;;;7381706;19;20027;-69
2023/10/20 09:06:35;;;;;;;16.15;12.63;;;14.90;22.20;;;;;;7378500;19;20025;-70
2023/10/20 09:09:08;;;;;;;16.77;12.82;;;15.00;34.50;;;;;;7379313;19;20343;-72
2023/10/20 09:11:39;;;;;;;15.07;13.18;;;14.90;33.10;;;;;;7379635;19;20014;-71
2023/10/20 09:14:10;;;;;;;13.60;12.13;;;14.80;29.20;;;;;;7380674;19;20796;-71
2023/10/20 09:16:43;;;;;;;17.02;12.38;;;14.90;35.10;;;;;;7378638;19;20010;-70
2023/10/20 09:19:14;;;;;;;14.75;12.70;;;14.90;40.80;;;;;;7378078;19;20006;-71
2023/10/20 09:21:47;;;;;;;14.57;12.18;;;14.90;32.70;;;;;;7377924;19;20011;-71
2023/10/20 09:24:17;;;;;;;17.75;11.88;;;15.00;39.60;;;;;;7379719;19;20048;-70
2023/10/20 09:26:47;;;;;;;16.70;13.65;;;14.90;34.00;;;;;;7376936;19;20419;-70
2023/10/20 09:29:18;;;;;;;16.00;13.02;;;15.10;48.70;;;;;;7372098;19;20010;-71
2023/10/20 09:31:52;;;;;;;15.13;12.18;;;15.00;47.20;;;;;;7378979;19;20475;-70
2023/10/20 09:34:23;;;;;;;17.85;12.43;;;15.10;38.50;;;;;;7379171;19;20010;-70
2023/10/20 09:36:56;;;;;;;18.10;13.77;;;15.10;29.00;;;;;;7377851;19;20014;-70
2023/10/20 09:39:40;;;;;;;15.13;11.97;;;15.20;26.90;;;;;;7377752;19;20003;-71
2023/10/20 09:42:14;;;;;;;17.25;13.02;;;15.20;27.70;;;;;;7379022;19;20020;-70
2023/10/20 09:44:49;;;;;;;17.70;12.53;;;15.10;30.80;;;;;;7376035;19;20010;-70
2023/10/20 09:47:28;;;;;;;14.57;13.02;;;15.10;27.30;;;;;;7377109;19;20534;-71
2023/10/20 09:49:58;;;;;;;15.50;12.63;;;15.20;32.00;;;;;;7378089;19;20689;-71
2023/10/20 09:52:29;;;;;;;13.52;11.98;;;15.30;25.50;;;;;;7378561;19;20012;-71
2023/10/20 09:55:00;;;;;;;14.00;12.13;;;15.60;27.40;;;;;;7378243;19;20015;-70
2023/10/20 09:57:30;;;;;;;16.75;12.30;;;15.70;12.60;;;;;;7376618;19;20022;-70
2023/10/20 10:00:00;;;;;;;14.88;12.27;;;15.90;13.90;;;;;;7375500;19;20015;-70
2023/10/20 10:02:34;;;;;;;14.52;11.73;;;15.90;6.00;;;;;;7376098;19;20466;-71
2023/10/20 10:05:04;;;;;;;20.40;12.55;;;15.90;3.90;;;;;;7373614;19;20054;-70
2023/10/20 10:07:36;;;;;;;15.15;11.93;;;15.90;3.40;;;;;;7373579;19;20022;-71
2023/10/20 10:10:07;;;;;;;18.52;12.02;;;16.10;14.10;;;;;;7377414;19;20081;-70
2023/10/20 10:12:40;;;;;;;16.00;12.75;;;16.00;4.90;;;;;;7377859;19;20017;-70
2023/10/20 10:15:12;;;;;;;17.90;12.05;;;16.10;9.00;;;;;;7379286;19;20522;-71
2023/10/20 10:17:49;;;;;;;13.55;11.88;;;16.00;6.00;;;;;;7378482;19;20014;-70
2023/10/20 10:20:25;;;;;;;15.40;11.88;;;15.90;3.50;;;;;;7375133;19;20006;-70
2023/10/20 10:23:01;;;;;;;15.57;12.15;;;15.90;4.70;;;;;;7377676;19;20090;-70
2023/10/20 10:25:42;;;;;;;14.10;11.18;;;16.10;7.60;;;;;;7376927;19;20035;-70
2023/10/20 10:28:13;;;;;;;11.80;10.43;;;16.20;2.80;;;;;;7378649;19;20160;-70
2023/10/20 10:30:46;;;;;;;14.18;10.73;;;16.40;4.50;;;;;;7377935;19;20010;-71
2023/10/20 10:33:24;;;;;;;13.43;9.93;;;16.60;9.70;;;;;;7373732;19;20011;-70
2023/10/20 10:36:09;;;;;;;10.50;9.30;;;16.50;1.00;;;;;;7379381;19;20011;-70
2023/10/20 10:38:44;;;;;;;15.27;9.73;;;16.50;1.00;;;;;;7375833;19;20010;-70
2023/10/20 10:41:14;;;;;;;11.07;8.23;;;16.70;1.00;;;;;;7377608;19;20002;-70
2023/10/20 10:43:44;;;;;;;11.02;8.57;;;16.80;1.00;;;;;;7377890;19;20035;-70
2023/10/20 10:46:14;;;;;;;11.00;7.97;;;16.90;1.00;;;;;;7377659;19;20026;-70
2023/10/20 10:48:47;;;;;;;9.55;7.40;;;17.00;1.00;;;;;;7374998;19;20010;-70
2023/10/20 10:51:18;;;;;;;10.18;8.30;;;17.10;1.00;;;;;;7373562;19;20011;-71
2023/10/20 10:53:50;;;;;;;9.45;7.60;;;17.20;1.00;;;;;;7374964;19;20022;-71
2023/10/20 10:56:21;;;;;;;8.02;7.00;;;17.20;1.00;;;;;;7374123;19;20006;-71
2023/10/20 10:58:52;;;;;;;8.07;6.93;;;17.30;1.00;;;;;;7375925;19;20036;-70
2023/10/20 11:01:22;;;;;;;10.27;7.25;;;17.20;1.00;;;;;;7375770;19;20079;-70
2023/10/20 11:03:54;;;;;;;10.32;6.80;;;17.20;1.00;;;;;;7375220;19;20098;-70
2023/10/20 11:06:25;;;;;;;10.07;6.20;;;17.30;1.00;;;;;;7375546;19;20044;-70
2023/10/20 11:08:55;;;;;;;10.10;6.22;;;17.40;1.00;;;;;;7375304;19;20363;-70
2023/10/20 11:11:27;;;;;;;8.82;6.05;;;17.40;1.00;;;;;;7374010;19;20010;-69
2023/10/20 11:13:59;;;;;;;6.53;4.65;;;17.40;1.00;;;;;;7376022;19;20011;-71
2023/10/20 11:16:29;;;;;;;7.45;5.10;;;17.50;1.00;;;;;;7374739;19;20013;-71
2023/10/20 11:19:02;;;;;;;5.13;3.75;;;17.50;1.00;;;;;;7379827;19;20011;-70
2023/10/20 11:21:42;;;;;;;4.88;3.35;;;17.50;1.00;;;;;;7376345;19;20306;-71
2023/10/20 11:24:12;;;;;;;3.88;2.80;;;17.50;1.00;;;;;;7376454;19;20784;-70
2023/10/20 11:26:42;;;;;;;3.70;2.65;;;17.50;1.00;;;;;;7375120;19;20011;-70
2023/10/20 11:29:12;;;;;;;4.47;2.05;;;17.60;1.00;;;;;;7375662;19;20039;-70
2023/10/20 11:31:42;;;;;;;4.60;2.33;;;17.60;1.00;;;;;;7376489;19;20011;-70
2023/10/20 11:34:15;;;;;;;4.38;2.10;;;17.50;1.00;;;;;;7376454;19;20019;-71
2023/10/20 11:36:45;;;;;;;2.33;2.05;;;17.50;1.00;;;;;;7375875;19;20351;-70
2023/10/20 11:39:15;;;;;;;2.28;1.23;;;17.50;1.00;;;;;;7376697;19;20027;-70
2023/10/20 11:41:45;;;;;;;2.22;0.85;;;17.50;1.00;;;;;;7377457;19;20082;-70
2023/10/20 11:44:15;;;;;;;4.45;0.90;;;17.50;1.00;;;;;;7385820;19;20010;-70
2023/10/20 11:46:45;;;;;;;1.10;0.90;;;17.50;1.00;;;;;;7389530;19;20026;-70
2023/10/20 11:49:18;;;;;;;2.38;0.88;;;17.50;1.00;;;;;;7376159;19;20463;-70
2023/10/20 11:51:48;;;;;;;2.97;0.68;;;17.50;1.00;;;;;;7373187;19;20014;-70
2023/10/20 11:54:19;;;;;;;5.00;0.90;;;17.40;1.00;;;;;;7375318;19;20029;-71
2023/10/20 11:56:50;;;;;;;1.58;0.60;;;17.40;1.00;;;;;;7373802;19;20089;-71
2023/10/20 11:59:20;;;;;;;0.80;0.60;;;17.40;1.00;;;;;;7375566;19;20010;-70
2023/10/20 12:01:50;;;;;;;0.50;0.40;;;17.30;1.00;;;;;;7373924;19;20014;-71
2023/10/20 12:04:22;;;;;;;0.85;0.40;;;17.10;1.00;;;;;;7372596;19;20018;-71
2023/10/20 12:06:52;;;;;;;0.52;0.30;;;17.30;1.00;;;;;;7373491;19;20007;-71
2023/10/20 12:09:23;;;;;;;1.20;0.40;;;17.30;1.00;;;;;;7374295;19;20081;-70
2023/10/20 12:11:53;;;;;;;1.65;0.40;;;17.20;1.00;;;;;;7375015;19;20993;-71
2023/10/20 12:14:26;;;;;;;0.40;0.30;;;17.20;1.00;;;;;;7371934;19;20039;-70
2023/10/20 12:16:56;;;;;;;1.77;0.60;;;17.20;1.00;;;;;;7373818;19;20071;-70
2023/10/20 12:19:28;;;;;;;1.80;0.50;;;17.20;1.00;;;;;;7373439;19;20031;-71
2023/10/20 12:21:58;;;;;;;1.23;0.60;;;17.20;1.00;;;;;;7374223;19;20118;-70
2023/10/20 12:24:28;;;;;;;1.02;0.50;;;17.20;1.00;;;;;;7373936;19;20025;-70
2023/10/20 12:26:59;;;;;;;1.10;0.40;;;17.20;1.00;;;;;;7372696;19;20021;-70
2023/10/20 12:29:29;;;;;;;0.40;0.30;;;17.30;1.00;;;;;;7372523;19;20027;-70
2023/10/20 12:31:59;;;;;;;2.28;0.55;;;17.40;1.00;;;;;;7374450;19;20036;-70
2023/10/20 12:34:31;;;;;;;1.25;0.40;;;17.40;1.00;;;;;;7373155;19;20018;-70
2023/10/20 12:37:04;;;;;;;2.47;0.60;;;17.50;1.00;;;;;;7371555;19;20007;-70
2023/10/20 12:39:34;;;;;;;1.05;0.40;;;17.70;1.00;;;;;;7373517;19;20010;-71
2023/10/20 12:42:05;;;;;;;1.17;0.40;;;17.80;1.00;;;;;;7374363;19;20011;-70
2023/10/20 12:44:36;;;;;;;1.52;0.40;;;18.00;1.00;;;;;;7374136;19;20078;-70
2023/10/20 12:47:07;;;;;;;0.40;0.20;;;18.00;1.00;;;;;;7373155;19;20478;-71
2023/10/20 12:49:40;;;;;;;2.40;0.40;;;18.00;1.00;;;;;;7369657;19;20013;-71
2023/10/20 12:52:12;;;;;;;0.65;0.32;;;18.10;1.00;;;;;;7373402;19;20041;-70
2023/10/20 12:54:42;;;;;;;1.20;0.50;;;18.10;1.00;;;;;;7373634;19;20023;-71
2023/10/20 12:57:12;;;;;;;2.47;0.60;;;18.10;1.00;;;;;;7371535;19;20641;-70
2023/10/20 12:59:42;;;;;;;2.72;0.50;;;18.00;1.00;;;;;;7373516;19;20010;-70
2023/10/20 13:02:12;;;;;;;4.80;0.60;;;18.00;1.00;;;;;;7373602;19;20148;-70
2023/10/20 13:04:45;;;;;;;0.63;0.32;;;18.10;1.00;;;;;;7371067;19;20094;-71
2023/10/20 13:07:15;;;;;;;0.30;0.30;;;18.10;1.00;;;;;;7371138;19;20073;-71
2023/10/20 13:09:45;;;;;;;0.35;0.20;;;18.10;1.00;;;;;;7372395;19;20045;-71
2023/10/20 13:12:16;;;;;;;2.10;0.40;;;18.10;1.00;;;;;;7374201;19;20354;-70
2023/10/20 13:14:46;;;;;;;3.25;0.80;;;18.10;1.00;;;;;;7372855;19;20755;-70
2023/10/20 13:17:17;;;;;;;1.05;0.28;;;18.00;1.00;;;;;;7370743;19;20022;-70
2023/10/20 13:19:49;;;;;;;0.98;0.47;;;18.10;1.00;;;;;;7372175;19;20378;-70
2023/10/20 13:22:20;;;;;;;2.20;0.50;;;18.10;1.00;;;;;;7372227;19;20035;-71
2023/10/20 13:24:50;;;;;;;2.55;0.32;;;18.10;1.00;;;;;;7372516;19;20021;-71
2023/10/20 13:27:21;;;;;;;1.00;0.40;;;18.00;1.00;;;;;;7379092;19;20010;-71